createdAt,value
2022-11-16T00:16:23.904Z,176
2022-11-16T00:36:23.929Z,180
2022-11-16T00:56:24.044Z,184
2022-11-16T01:16:23.935Z,180
2022-11-16T01:36:23.758Z,181
2022-11-16T01:56:23.906Z,181
2022-11-16T02:16:23.971Z,181
2022-11-16T02:36:23.919Z,189
2022-11-16T02:56:23.456Z,185
2022-11-16T03:16:23.946Z,186
2022-11-16T03:36:23.941Z,186
2022-11-16T03:56:23.956Z,189
2022-11-16T04:16:23.956Z,213
2022-11-16T04:36:23.454Z,221
2022-11-16T04:56:23.931Z,232
2022-11-16T05:16:23.946Z,239
2022-11-16T05:36:23.962Z,240
2022-11-16T05:56:24.001Z,241
2022-11-16T06:16:23.968Z,242
2022-11-16T06:36:23.964Z,246
2022-11-16T06:56:23.985Z,260
2022-11-16T07:16:23.971Z,269
2022-11-16T07:36:23.951Z,268
2022-11-16T07:56:23.477Z,270
2022-11-16T08:16:23.797Z,263
2022-11-16T08:36:23.967Z,262
2022-11-16T08:56:23.994Z,257
2022-11-16T09:16:23.998Z,257
2022-11-16T09:36:23.994Z,258
2022-11-16T09:56:23.998Z,259
2022-11-16T10:16:24.012Z,265
2022-11-16T10:36:23.995Z,264
2022-11-16T10:56:23.826Z,268
2022-11-16T11:16:24.078Z,264
2022-11-16T12:16:23.514Z,266
2022-11-16T12:36:24.046Z,266
2022-11-16T13:16:24.021Z,263
2022-11-16T13:36:24.043Z,260
2022-11-16T13:56:28.515Z,258
2022-11-16T14:16:24.026Z,253
2022-11-16T14:56:24.018Z,249
2022-11-16T15:16:23.834Z,245
2022-11-16T15:36:24.031Z,245
2022-11-16T15:56:24.025Z,247
2022-11-16T16:16:24.046Z,243
2022-11-16T16:36:24.110Z,243
2022-11-16T16:56:24.068Z,244
2022-11-16T17:16:23.723Z,242
2022-11-16T17:36:24.069Z,242
2022-11-16T17:56:23.564Z,246
2022-11-16T18:16:24.089Z,242
2022-11-16T18:36:24.080Z,246
2022-11-16T18:56:24.074Z,241
2022-11-16T19:16:24.106Z,240
2022-11-16T19:36:23.598Z,240
2022-11-16T19:56:23.921Z,246
2022-11-16T20:16:24.100Z,248
2022-11-16T20:36:24.150Z,240
2022-11-16T20:56:24.145Z,243
2022-11-16T21:16:24.119Z,241
2022-11-16T21:36:24.142Z,236
2022-11-16T21:56:24.125Z,234
2022-11-16T22:16:24.162Z,232
2022-11-16T22:36:24.129Z,225
2022-11-16T22:56:24.148Z,222
2022-11-16T23:16:24.179Z,216
2022-11-16T23:36:24.148Z,213
2022-11-16T23:56:23.653Z,209
